Time;durP1;ratioP1;P1;durP2;ratioP2;P2;SDS_P1;SDS_P2;PMS_P1;PMS_P2;Temp;Humidity;BMP_temperature;BMP_pressure;BME280_temperature;BME280_humidity;BME280_pressure;Samples;Min_cycle;Max_cycle;Signal;HPM_P1;HPM_P2
2023/05/23 00:01:45;;;;;;;6.10;5.50;;;;;;;;;;4983513;28;20100;-78
2023/05/23 00:04:15;;;;;;;7.20;6.15;;;;;;;;;;4974422;28;20033;-79
2023/05/23 00:06:45;;;;;;;6.13;5.40;;;;;;;;;;4988563;28;20158;-79
2023/05/23 00:09:13;;;;;;;9.07;6.45;;;;;;;;;;4991686;28;20080;-79
2023/05/23 00:11:39;;;;;;;9.27;6.85;;;;;;;;;;4982678;28;20037;-78
2023/05/23 00:14:07;;;;;;;4.85;4.18;;;;;;;;;;4968960;28;20446;-78
2023/05/23 00:16:32;;;;;;;6.57;5.07;;;;;;;;;;4971953;28;20142;-78
2023/05/23 00:18:58;;;;;;;5.22;4.38;;;;;;;;;;4980339;28;20495;-78
2023/05/23 00:21:23;;;;;;;7.60;6.25;;;;;;;;;;4972469;28;20069;-79
2023/05/23 00:23:49;;;;;;;5.50;4.95;;;;;;;;;;5009744;28;20562;-78
2023/05/23 00:26:14;;;;;;;7.50;6.65;;;;;;;;;;4980405;28;20042;-78
2023/05/23 00:28:40;;;;;;;7.70;6.50;;;;;;;;;;4982465;28;20046;-79
2023/05/23 00:31:05;;;;;;;8.02;5.70;;;;;;;;;;4967433;28;20058;-78
2023/05/23 00:33:32;;;;;;;8.43;7.13;;;;;;;;;;4972235;28;20486;-78
2023/05/23 00:35:58;;;;;;;9.55;6.85;;;;;;;;;;4992790;28;20541;-79
2023/05/23 00:38:25;;;;;;;8.70;6.75;;;;;;;;;;4994439;28;20498;-78
2023/05/23 00:40:51;;;;;;;6.47;5.78;;;;;;;;;;4982207;28;20046;-77
2023/05/23 00:43:17;;;;;;;5.88;4.63;;;;;;;;;;4991195;28;20104;-78
2023/05/23 00:45:42;;;;;;;8.07;5.95;;;;;;;;;;4996037;28;20521;-78
2023/05/23 00:48:08;;;;;;;3.75;3.45;;;;;;;;;;4988384;28;20047;-78
2023/05/23 00:50:35;;;;;;;9.05;7.25;;;;;;;;;;4970222;28;20129;-78
2023/05/23 00:53:00;;;;;;;7.93;6.15;;;;;;;;;;4992311;28;20044;-79
2023/05/23 00:55:27;;;;;;;7.63;6.38;;;;;;;;;;5018631;28;20042;-78
2023/05/23 00:57:54;;;;;;;7.72;6.18;;;;;;;;;;4971618;28;20060;-78
2023/05/23 01:00:21;;;;;;;8.15;6.35;;;;;;;;;;4992329;28;20572;-78
2023/05/23 01:02:52;;;;;;;5.68;5.18;;;;;;;;;;4992471;28;20545;-78
2023/05/23 01:05:18;;;;;;;7.60;5.63;;;;;;;;;;5000637;28;20557;-78
2023/05/23 01:07:47;;;;;;;4.95;4.40;;;;;;;;;;4987533;28;20106;-77
2023/05/23 01:10:14;;;;;;;6.80;5.68;;;;;;;;;;4982026;28;20030;-78
2023/05/23 01:13:10;;;;;;;5.45;4.28;;;;;;;;;;5011892;28;20048;-78
2023/05/23 01:16:08;;;;;;;6.28;5.55;;;;;;;;;;4983964;28;20092;-77
2023/05/23 01:18:40;;;;;;;6.85;5.63;;;;;;;;;;4961501;28;20058;-78
2023/05/23 01:21:16;;;;;;;5.95;4.35;;;;;;;;;;4988458;28;20041;-78
2023/05/23 01:24:35;;;;;;;41.10;7.07;;;;;;;;;;4998844;28;20041;-78
2023/05/23 01:27:12;;;;;;;15.05;6.05;;;;;;;;;;4895672;28;20044;-79
2023/05/23 01:29:44;;;;;;;6.93;5.80;;;;;;;;;;4984651;28;20051;-79
2023/05/23 01:32:11;;;;;;;8.75;6.75;;;;;;;;;;4991646;28;20056;-79
2023/05/23 01:34:37;;;;;;;6.68;4.97;;;;;;;;;;4985411;28;20573;-79
2023/05/23 01:37:08;;;;;;;7.75;6.63;;;;;;;;;;5004859;28;20518;-79
2023/05/23 01:39:34;;;;;;;5.60;4.93;;;;;;;;;;4981775;28;20038;-79
2023/05/23 01:41:59;;;;;;;6.85;6.10;;;;;;;;;;5008323;28;20091;-79
2023/05/23 01:44:24;;;;;;;9.38;7.85;;;;;;;;;;5008824;28;20056;-79
2023/05/23 01:46:50;;;;;;;9.43;6.82;;;;;;;;;;4996673;28;20653;-80
2023/05/23 01:49:16;;;;;;;6.70;5.85;;;;;;;;;;5005768;28;20049;-80
2023/05/23 01:51:42;;;;;;;9.15;7.57;;;;;;;;;;5009989;28;20116;-80
2023/05/23 01:54:07;;;;;;;6.18;5.40;;;;;;;;;;4989183;28;20064;-80
2023/05/23 01:56:33;;;;;;;6.30;5.68;;;;;;;;;;5006696;28;20052;-80
2023/05/23 01:59:00;;;;;;;10.18;7.38;;;;;;;;;;5007119;28;20120;-81
2023/05/23 02:01:26;;;;;;;6.70;5.28;;;;;;;;;;4993450;28;20049;-80
2023/05/23 02:03:51;;;;;;;8.25;6.57;;;;;;;;;;4993935;28;20105;-79
2023/05/23 02:06:17;;;;;;;9.77;6.40;;;;;;;;;;4972836;28;20128;-80
2023/05/23 02:08:42;;;;;;;8.57;7.32;;;;;;;;;;4990679;28;20051;-80
2023/05/23 02:11:09;;;;;;;7.38;6.05;;;;;;;;;;4999202;28;20056;-80
2023/05/23 02:13:34;;;;;;;10.80;7.22;;;;;;;;;;4990861;28;20038;-80
2023/05/23 02:16:00;;;;;;;9.70;6.80;;;;;;;;;;4999403;28;20037;-80
2023/05/23 02:18:28;;;;;;;8.93;6.93;;;;;;;;;;4999148;28;20145;-80
2023/05/23 02:20:55;;;;;;;12.68;6.78;;;;;;;;;;4970673;28;20132;-79
2023/05/23 02:23:20;;;;;;;8.65;6.15;;;;;;;;;;4985781;28;20099;-79
2023/05/23 02:25:46;;;;;;;4.53;4.13;;;;;;;;;;5003055;28;20046;-80
2023/05/23 02:28:12;;;;;;;8.98;6.88;;;;;;;;;;4986972;28;20113;-79
2023/05/23 02:30:38;;;;;;;7.25;6.15;;;;;;;;;;4976600;28;20046;-79
2023/05/23 02:33:06;;;;;;;7.10;5.53;;;;;;;;;;5008363;28;20052;-78
2023/05/23 02:35:32;;;;;;;7.45;6.00;;;;;;;;;;4954342;28;20034;-78
2023/05/23 02:37:58;;;;;;;11.52;7.90;;;;;;;;;;4985150;28;20044;-79
2023/05/23 02:40:23;;;;;;;8.10;6.65;;;;;;;;;;5018820;28;20049;-80
2023/05/23 02:42:50;;;;;;;9.48;7.20;;;;;;;;;;5012313;28;20033;-79
2023/05/23 02:45:16;;;;;;;6.72;5.65;;;;;;;;;;4969626;28;20034;-79
2023/05/23 02:47:42;;;;;;;10.20;7.60;;;;;;;;;;4986352;28;20049;-79
2023/05/23 02:50:08;;;;;;;11.30;8.30;;;;;;;;;;4982548;28;20662;-80
2023/05/23 02:52:33;;;;;;;7.55;5.70;;;;;;;;;;4989569;28;20394;-79
2023/05/23 02:54:58;;;;;;;7.53;5.90;;;;;;;;;;5005507;28;20049;-79
2023/05/23 02:57:24;;;;;;;8.35;6.53;;;;;;;;;;5008038;28;20120;-79
2023/05/23 02:59:50;;;;;;;5.63;4.60;;;;;;;;;;4991934;28;20075;-79
2023/05/23 03:02:15;;;;;;;12.38;9.55;;;;;;;;;;4954456;28;20053;-78
2023/05/23 03:04:41;;;;;;;13.65;10.38;;;;;;;;;;4977291;28;20052;-78
2023/05/23 03:07:06;;;;;;;13.82;10.05;;;;;;;;;;4996214;28;20060;-79
2023/05/23 03:09:32;;;;;;;13.90;10.57;;;;;;;;;;4999429;28;20041;-80
2023/05/23 03:11:57;;;;;;;7.40;6.63;;;;;;;;;;4986426;28;20042;-79
2023/05/23 03:14:23;;;;;;;13.85;9.38;;;;;;;;;;4991060;28;20037;-79
2023/05/23 03:16:48;;;;;;;5.18;4.40;;;;;;;;;;4970830;28;20046;-78
2023/05/23 03:19:14;;;;;;;15.80;10.80;;;;;;;;;;5005580;28;20553;-79
2023/05/23 03:21:39;;;;;;;17.88;12.10;;;;;;;;;;4996920;28;20033;-79
2023/05/23 03:24:05;;;;;;;10.55;7.88;;;;;;;;;;5008961;28;20132;-79
2023/05/23 03:26:31;;;;;;;9.80;7.75;;;;;;;;;;4998820;28;20034;-79
2023/05/23 03:28:56;;;;;;;14.18;9.95;;;;;;;;;;4974964;28;20124;-81
2023/05/23 03:31:22;;;;;;;11.25;8.93;;;;;;;;;;4965926;28;20041;-80
2023/05/23 03:33:47;;;;;;;13.00;8.65;;;;;;;;;;5008472;28;20053;-80
2023/05/23 03:36:13;;;;;;;16.65;12.20;;;;;;;;;;4971901;28;20050;-79
2023/05/23 03:38:38;;;;;;;20.98;14.13;;;;;;;;;;4990062;28;20030;-78
2023/05/23 03:41:04;;;;;;;17.50;12.50;;;;;;;;;;5007352;28;20072;-79
2023/05/23 03:43:29;;;;;;;11.90;9.73;;;;;;;;;;5007420;28;20055;-80
2023/05/23 03:45:54;;;;;;;14.32;10.43;;;;;;;;;;4975589;28;20422;-79
2023/05/23 03:48:20;;;;;;;11.55;8.70;;;;;;;;;;4988170;28;20148;-79
2023/05/23 03:50:46;;;;;;;8.43;6.40;;;;;;;;;;5005463;28;20037;-79
2023/05/23 03:53:12;;;;;;;12.13;8.80;;;;;;;;;;5005633;28;20042;-79
2023/05/23 03:55:38;;;;;;;20.02;14.55;;;;;;;;;;4993585;28;20101;-79
2023/05/23 03:58:03;;;;;;;22.17;15.50;;;;;;;;;;4986350;28;20130;-79
2023/05/23 04:00:29;;;;;;;10.60;8.45;;;;;;;;;;4986219;28;20117;-79
2023/05/23 04:02:54;;;;;;;21.92;15.40;;;;;;;;;;5009611;28;20048;-78
2023/05/23 04:05:20;;;;;;;17.52;12.18;;;;;;;;;;5003971;28;20124;-80
2023/05/23 04:07:45;;;;;;;14.40;12.10;;;;;;;;;;4995849;28;20071;-80
2023/05/23 04:10:11;;;;;;;9.30;7.32;;;;;;;;;;5009027;28;20061;-79
2023/05/23 04:12:40;;;;;;;10.50;7.80;;;;;;;;;;5006370;28;20060;-80
2023/05/23 04:15:06;;;;;;;8.88;7.18;;;;;;;;;;4956707;28;20095;-79
2023/05/23 04:17:32;;;;;;;10.38;7.70;;;;;;;;;;5006568;28;20076;-79
2023/05/23 04:19:57;;;;;;;12.80;9.27;;;;;;;;;;5009559;28;20437;-80
2023/05/23 04:22:22;;;;;;;13.05;9.13;;;;;;;;;;4984908;28;20069;-79
2023/05/23 04:24:48;;;;;;;14.07;8.32;;;;;;;;;;5008255;28;20216;-79
2023/05/23 04:27:13;;;;;;;8.15;6.05;;;;;;;;;;4992688;28;20061;-80
2023/05/23 04:29:39;;;;;;;7.47;5.90;;;;;;;;;;5002688;28;20088;-78
2023/05/23 04:32:05;;;;;;;10.23;7.68;;;;;;;;;;5004210;28;20045;-75
2023/05/23 04:34:32;;;;;;;9.82;6.28;;;;;;;;;;5008141;28;20072;-79
2023/05/23 04:37:01;;;;;;;9.20;6.85;;;;;;;;;;4995649;28;20041;-77
2023/05/23 04:39:28;;;;;;;11.38;7.88;;;;;;;;;;4988547;28;20038;-77
2023/05/23 04:41:54;;;;;;;8.20;6.78;;;;;;;;;;4984599;28;20591;-77
2023/05/23 04:44:19;;;;;;;7.88;6.30;;;;;;;;;;4993406;28;20041;-77
2023/05/23 04:46:45;;;;;;;6.72;4.90;;;;;;;;;;4988890;28;20998;-77
2023/05/23 04:49:11;;;;;;;9.02;6.40;;;;;;;;;;5009956;28;20108;-77
2023/05/23 04:51:37;;;;;;;10.20;7.57;;;;;;;;;;4982155;28;20172;-77
2023/05/23 04:54:03;;;;;;;6.22;4.80;;;;;;;;;;5006762;28;20120;-76
2023/05/23 04:56:28;;;;;;;10.52;7.63;;;;;;;;;;4950483;28;20033;-76
2023/05/23 04:58:54;;;;;;;8.23;5.47;;;;;;;;;;5002296;28;20062;-77
2023/05/23 05:01:23;;;;;;;11.77;7.55;;;;;;;;;;4998169;28;20045;-77
2023/05/23 05:03:48;;;;;;;9.25;6.82;;;;;;;;;;5003397;28;20529;-77
2023/05/23 05:06:15;;;;;;;7.35;6.15;;;;;;;;;;4989583;28;20049;-77
2023/05/23 05:08:40;;;;;;;11.23;7.50;;;;;;;;;;4975098;28;20501;-82
2023/05/23 05:11:06;;;;;;;6.13;4.55;;;;;;;;;;4995783;28;20166;-78
2023/05/23 05:13:31;;;;;;;12.77;6.93;;;;;;;;;;4976645;28;20235;-79
2023/05/23 05:15:57;;;;;;;10.63;7.22;;;;;;;;;;5006086;28;20053;-75
2023/05/23 05:18:24;;;;;;;13.35;7.30;;;;;;;;;;4990056;28;20395;-76
2023/05/23 05:20:50;;;;;;;6.55;4.85;;;;;;;;;;5005680;28;20108;-75
2023/05/23 05:23:15;;;;;;;8.15;6.30;;;;;;;;;;4972095;28;20033;-76
2023/05/23 05:25:41;;;;;;;7.13;6.18;;;;;;;;;;5002918;28;20083;-76
2023/05/23 05:28:06;;;;;;;4.55;4.13;;;;;;;;;;5002065;28;20042;-76
2023/05/23 05:30:34;;;;;;;5.03;3.95;;;;;;;;;;5011937;28;20045;-77
2023/05/23 05:33:00;;;;;;;6.97;5.22;;;;;;;;;;5006109;28;20037;-76
2023/05/23 05:35:26;;;;;;;9.98;7.32;;;;;;;;;;4996534;28;20461;-76
2023/05/23 05:37:51;;;;;;;8.43;6.53;;;;;;;;;;4988431;28;20116;-76
2023/05/23 05:40:17;;;;;;;9.73;6.95;;;;;;;;;;4990453;28;20124;-75
2023/05/23 05:42:42;;;;;;;11.63;6.95;;;;;;;;;;4990785;28;20029;-75
2023/05/23 05:45:08;;;;;;;5.15;3.97;;;;;;;;;;5005448;28;20418;-76
2023/05/23 05:47:33;;;;;;;8.77;6.45;;;;;;;;;;4992872;28;20033;-76
2023/05/23 05:49:59;;;;;;;4.55;3.78;;;;;;;;;;4967266;28;20038;-77
2023/05/23 05:52:24;;;;;;;9.13;5.70;;;;;;;;;;4976961;28;20481;-76
2023/05/23 05:54:50;;;;;;;7.97;4.88;;;;;;;;;;5006697;28;20042;-76
2023/05/23 05:57:15;;;;;;;6.18;4.93;;;;;;;;;;4986571;28;20049;-76
2023/05/23 05:59:41;;;;;;;6.07;5.03;;;;;;;;;;5010380;28;20053;-76
2023/05/23 06:02:07;;;;;;;5.10;3.75;;;;;;;;;;4992053;28;20091;-76
2023/05/23 06:04:32;;;;;;;6.32;4.35;;;;;;;;;;5004252;28;20068;-76
2023/05/23 06:06:57;;;;;;;4.85;3.92;;;;;;;;;;4990534;28;20480;-76
2023/05/23 06:09:23;;;;;;;6.18;4.38;;;;;;;;;;5006703;28;20042;-76
2023/05/23 06:11:48;;;;;;;5.57;3.95;;;;;;;;;;4995381;28;20049;-76
2023/05/23 06:14:13;;;;;;;6.60;4.95;;;;;;;;;;5009872;28;20034;-76
2023/05/23 06:16:39;;;;;;;4.15;3.45;;;;;;;;;;4991849;28;20124;-76
2023/05/23 06:19:04;;;;;;;4.47;3.20;;;;;;;;;;4987695;28;20037;-76
2023/05/23 06:21:30;;;;;;;5.72;4.30;;;;;;;;;;4991584;28;20038;-76
2023/05/23 06:23:55;;;;;;;5.05;3.78;;;;;;;;;;4986655;28;20057;-76
2023/05/23 06:26:20;;;;;;;6.00;3.53;;;;;;;;;;5009147;28;20457;-77
2023/05/23 06:28:46;;;;;;;3.83;3.33;;;;;;;;;;4990635;28;20049;-76
2023/05/23 06:31:11;;;;;;;3.25;2.95;;;;;;;;;;4995642;28;20593;-77
2023/05/23 06:33:37;;;;;;;3.50;2.95;;;;;;;;;;4985765;28;20613;-77
2023/05/23 06:36:02;;;;;;;2.92;2.63;;;;;;;;;;4991667;28;20037;-76
2023/05/23 06:38:32;;;;;;;4.80;3.10;;;;;;;;;;4998681;28;20052;-76
2023/05/23 06:40:58;;;;;;;3.75;3.05;;;;;;;;;;5008991;28;20063;-76
2023/05/23 06:43:24;;;;;;;2.72;2.53;;;;;;;;;;5004527;28;20486;-76
2023/05/23 06:45:50;;;;;;;4.05;2.78;;;;;;;;;;4989281;28;20048;-77
2023/05/23 06:48:15;;;;;;;3.50;2.35;;;;;;;;;;4968405;28;20037;-77
2023/05/23 06:50:41;;;;;;;3.60;3.20;;;;;;;;;;5005875;28;20165;-77
2023/05/23 06:53:06;;;;;;;4.28;2.85;;;;;;;;;;5006631;28;20127;-77
2023/05/23 06:55:32;;;;;;;2.70;2.40;;;;;;;;;;5004744;28;20098;-76
2023/05/23 06:57:59;;;;;;;3.38;2.53;;;;;;;;;;5003550;28;20461;-77
2023/05/23 07:00:24;;;;;;;3.00;2.35;;;;;;;;;;4989362;28;20041;-76
2023/05/23 07:02:50;;;;;;;3.35;2.72;;;;;;;;;;4978170;28;20045;-76
2023/05/23 07:05:16;;;;;;;2.95;2.33;;;;;;;;;;4978342;28;20060;-76
2023/05/23 07:07:42;;;;;;;4.07;3.17;;;;;;;;;;5005847;28;20117;-76
2023/05/23 07:10:08;;;;;;;4.05;2.95;;;;;;;;;;5006895;28;20505;-76
2023/05/23 07:12:36;;;;;;;4.82;2.92;;;;;;;;;;5007566;28;20037;-77
2023/05/23 07:15:01;;;;;;;2.72;2.22;;;;;;;;;;4954557;28;20155;-76
2023/05/23 07:17:29;;;;;;;3.08;2.70;;;;;;;;;;4988033;28;20597;-75
2023/05/23 07:19:54;;;;;;;1.92;1.77;;;;;;;;;;4989523;28;20045;-77
2023/05/23 07:22:20;;;;;;;2.80;2.40;;;;;;;;;;5000221;28;20034;-76
2023/05/23 07:24:45;;;;;;;2.85;2.28;;;;;;;;;;4971675;28;21596;-76
2023/05/23 07:27:10;;;;;;;2.03;1.83;;;;;;;;;;4991094;28;20073;-76
2023/05/23 07:29:36;;;;;;;2.25;2.00;;;;;;;;;;4963630;28;20062;-77
2023/05/23 07:32:01;;;;;;;3.08;2.05;;;;;;;;;;5011990;28;20049;-77
2023/05/23 07:34:27;;;;;;;2.53;1.92;;;;;;;;;;5005727;28;20512;-77
2023/05/23 07:36:52;;;;;;;3.38;2.28;;;;;;;;;;4991113;28;20104;-77
2023/05/23 07:39:23;;;;;;;2.78;2.08;;;;;;;;;;4997834;28;20048;-77
2023/05/23 07:41:49;;;;;;;3.67;2.13;;;;;;;;;;5004769;28;20661;-77
2023/05/23 07:44:15;;;;;;;3.00;2.17;;;;;;;;;;4989115;28;20124;-76
2023/05/23 07:46:40;;;;;;;2.08;1.70;;;;;;;;;;4989306;28;20073;-77
2023/05/23 07:49:06;;;;;;;2.65;2.15;;;;;;;;;;5007366;28;20120;-76
2023/05/23 07:51:31;;;;;;;2.83;2.00;;;;;;;;;;4997175;28;20514;-76
2023/05/23 07:53:57;;;;;;;1.90;1.52;;;;;;;;;;4998233;28;20057;-75
2023/05/23 07:56:22;;;;;;;2.30;1.83;;;;;;;;;;4989730;28;20100;-76
2023/05/23 07:58:47;;;;;;;3.47;2.15;;;;;;;;;;4970926;28;20635;-75
2023/05/23 08:01:13;;;;;;;2.88;2.05;;;;;;;;;;5004172;28;20049;-75
2023/05/23 08:03:38;;;;;;;2.50;2.30;;;;;;;;;;4997185;28;20041;-76
2023/05/23 08:06:04;;;;;;;3.10;1.75;;;;;;;;;;4999269;28;20048;-76
2023/05/23 08:08:29;;;;;;;3.08;1.95;;;;;;;;;;4987355;28;20498;-76
2023/05/23 08:10:55;;;;;;;2.88;1.42;;;;;;;;;;4999482;28;20052;-77
2023/05/23 08:13:20;;;;;;;3.20;2.60;;;;;;;;;;4994230;28;20043;-76
2023/05/23 08:15:45;;;;;;;1.42;1.33;;;;;;;;;;4991355;28;20046;-76
2023/05/23 08:18:11;;;;;;;1.23;1.13;;;;;;;;;;4996629;28;20030;-76
2023/05/23 08:20:37;;;;;;;2.78;2.50;;;;;;;;;;5005466;28;20038;-76
2023/05/23 08:23:02;;;;;;;2.38;2.17;;;;;;;;;;4993140;28;20072;-76
2023/05/23 08:25:32;;;;;;;1.35;1.25;;;;;;;;;;4995549;28;20033;-76
2023/05/23 08:27:57;;;;;;;1.25;1.05;;;;;;;;;;5010997;28;20112;-76
2023/05/23 08:30:24;;;;;;;3.25;2.45;;;;;;;;;;4983304;28;20137;-76
2023/05/23 08:32:54;;;;;;;3.30;2.42;;;;;;;;;;4999135;28;20043;-76
2023/05/23 08:35:20;;;;;;;2.38;1.83;;;;;;;;;;4979674;28;20065;-76
2023/05/23 08:37:46;;;;;;;4.32;3.00;;;;;;;;;;4996385;28;20042;-76
2023/05/23 08:40:19;;;;;;;2.85;1.42;;;;;;;;;;4958245;28;20041;-76
2023/05/23 08:42:47;;;;;;;2.83;2.28;;;;;;;;;;5006721;28;20040;-76
2023/05/23 08:45:12;;;;;;;3.78;2.72;;;;;;;;;;4987627;28;20037;-77
2023/05/23 08:47:41;;;;;;;3.20;2.60;;;;;;;;;;4997628;28;20410;-76
2023/05/23 08:50:07;;;;;;;2.78;2.53;;;;;;;;;;5006847;28;20521;-76
2023/05/23 08:52:36;;;;;;;2.60;2.38;;;;;;;;;;4987521;28;20037;-76
2023/05/23 08:55:02;;;;;;;3.75;2.60;;;;;;;;;;5002019;28;20049;-76
2023/05/23 08:57:29;;;;;;;2.85;2.47;;;;;;;;;;4992018;28;20048;-76
2023/05/23 08:59:55;;;;;;;2.30;1.80;;;;;;;;;;4982097;28;20077;-75
2023/05/23 09:02:21;;;;;;;2.47;2.28;;;;;;;;;;4999395;28;20631;-76
2023/05/23 09:04:46;;;;;;;2.13;1.88;;;;;;;;;;4997636;28;20088;-76
2023/05/23 09:07:15;;;;;;;3.45;2.08;;;;;;;;;;4986720;28;20059;-76
2023/05/23 09:09:41;;;;;;;1.58;1.48;;;;;;;;;;5008978;28;20049;-75
2023/05/23 09:12:06;;;;;;;1.40;1.30;;;;;;;;;;4979935;28;20124;-76
2023/05/23 09:14:32;;;;;;;1.98;1.55;;;;;;;;;;4970874;28;20061;-76
2023/05/23 09:17:01;;;;;;;1.98;1.80;;;;;;;;;;4990838;28;20138;-76
2023/05/23 09:19:27;;;;;;;1.52;1.30;;;;;;;;;;4964140;28;20563;-76
2023/05/23 09:21:53;;;;;;;1.48;1.38;;;;;;;;;;5008305;28;20033;-76
2023/05/23 09:24:19;;;;;;;1.30;1.20;;;;;;;;;;4999276;28;20045;-75
2023/05/23 09:26:48;;;;;;;1.27;1.17;;;;;;;;;;4999202;28;20034;-76
2023/05/23 09:29:18;;;;;;;1.20;1.10;;;;;;;;;;4966581;28;20038;-76
2023/05/23 09:31:43;;;;;;;1.05;0.98;;;;;;;;;;4987898;28;20152;-76
2023/05/23 09:34:09;;;;;;;1.27;1.05;;;;;;;;;;4985358;28;20038;-75
2023/05/23 09:36:35;;;;;;;1.45;1.35;;;;;;;;;;4987599;28;20564;-76
2023/05/23 09:39:07;;;;;;;1.38;1.27;;;;;;;;;;5002616;28;20042;-76
2023/05/23 09:41:34;;;;;;;1.40;1.30;;;;;;;;;;4988370;28;20061;-76
2023/05/23 09:44:08;;;;;;;1.23;1.13;;;;;;;;;;4996715;28;20053;-75
2023/05/23 09:46:39;;;;;;;1.67;1.50;;;;;;;;;;4965675;28;20106;-76
2023/05/23 09:49:16;;;;;;;0.90;0.90;;;;;;;;;;4990610;28;20124;-76
2023/05/23 09:51:42;;;;;;;1.15;1.00;;;;;;;;;;5003865;28;20113;-76
2023/05/23 09:54:07;;;;;;;1.60;1.50;;;;;;;;;;5006930;28;20124;-76
2023/05/23 09:56:36;;;;;;;1.30;1.20;;;;;;;;;;5014508;28;20116;-76
2023/05/23 09:59:02;;;;;;;1.95;0.98;;;;;;;;;;4968917;28;20062;-76
2023/05/23 10:01:30;;;;;;;1.58;0.90;;;;;;;;;;4988757;28;20037;-76
2023/05/23 10:03:58;;;;;;;1.90;1.05;;;;;;;;;;4988427;28;20036;-76
2023/05/23 10:06:33;;;;;;;1.02;0.93;;;;;;;;;;5009130;28;20037;-76
2023/05/23 10:09:05;;;;;;;1.33;1.23;;;;;;;;;;5006309;28;20061;-76
2023/05/23 10:11:33;;;;;;;0.93;0.93;;;;;;;;;;4943242;28;20078;-76
2023/05/23 10:14:08;;;;;;;1.20;1.10;;;;;;;;;;4999358;28;20041;-76
2023/05/23 10:16:54;;;;;;;1.15;1.05;;;;;;;;;;4995883;28;20041;-77
2023/05/23 10:19:42;;;;;;;1.00;0.98;;;;;;;;;;5008145;28;20216;-76
2023/05/23 10:22:10;;;;;;;2.38;1.38;;;;;;;;;;4962343;28;20140;-76
2023/05/23 10:24:36;;;;;;;2.83;0.77;;;;;;;;;;5011830;28;20704;-76
2023/05/23 10:27:02;;;;;;;1.00;1.00;;;;;;;;;;5001893;28;20033;-76
2023/05/23 10:29:28;;;;;;;1.25;1.02;;;;;;;;;;5006589;28;20037;-76
2023/05/23 10:31:55;;;;;;;12.50;1.25;;;;;;;;;;4984420;28;20049;-76
2023/05/23 10:34:35;;;;;;;0.93;0.80;;;;;;;;;;4985862;28;20041;-75
2023/05/23 10:37:05;;;;;;;0.88;0.88;;;;;;;;;;5008239;28;20045;-76
2023/05/23 10:39:59;;;;;;;0.68;0.65;;;;;;;;;;4986282;28;20044;-76
2023/05/23 10:42:44;;;;;;;1.10;1.00;;;;;;;;;;5004114;28;21449;-76
2023/05/23 10:45:23;;;;;;;1.10;1.00;;;;;;;;;;4951225;28;20043;-76
2023/05/23 10:47:53;;;;;;;0.75;0.75;;;;;;;;;;5005747;28;20048;-76
2023/05/23 10:50:36;;;;;;;0.90;0.90;;;;;;;;;;5000865;28;20726;-76
2023/05/23 10:53:03;;;;;;;1.42;1.25;;;;;;;;;;5001978;28;20095;-76
2023/05/23 10:55:34;;;;;;;1.50;1.40;;;;;;;;;;4982500;28;20137;-76
2023/05/23 10:58:16;;;;;;;1.13;0.98;;;;;;;;;;5007256;28;20116;-76
2023/05/23 11:01:00;;;;;;;1.50;1.00;;;;;;;;;;4988679;28;20064;-76
2023/05/23 11:03:48;;;;;;;0.95;0.80;;;;;;;;;;5006353;28;20685;-76
2023/05/23 11:06:47;;;;;;;1.00;0.75;;;;;;;;;;4941066;28;20118;-76
2023/05/23 11:09:12;;;;;;;1.30;1.20;;;;;;;;;;5009409;28;20076;-76
2023/05/23 11:11:50;;;;;;;1.10;1.00;;;;;;;;;;5009178;28;20038;-76
2023/05/23 11:14:16;;;;;;;2.63;1.55;;;;;;;;;;4963790;28;20037;-76
2023/05/23 11:16:45;;;;;;;2.80;1.98;;;;;;;;;;5005580;28;20118;-76
2023/05/23 11:19:24;;;;;;;3.15;2.22;;;;;;;;;;4990802;28;20033;-76
2023/05/23 11:22:00;;;;;;;3.38;2.35;;;;;;;;;;4992039;28;20091;-76
2023/05/23 11:24:51;;;;;;;4.05;2.72;;;;;;;;;;5000619;28;20680;-76
2023/05/23 11:27:34;;;;;;;2.88;2.58;;;;;;;;;;4947588;28;20069;-75
2023/05/23 11:30:06;;;;;;;1.58;1.48;;;;;;;;;;4980385;28;20887;-76
2023/05/23 11:32:32;;;;;;;1.67;1.23;;;;;;;;;;4976777;28;20082;-76
2023/05/23 11:35:08;;;;;;;2.58;1.55;;;;;;;;;;4998944;28;20529;-76
2023/05/23 11:37:34;;;;;;;3.17;2.47;;;;;;;;;;4963688;28;20391;-75
2023/05/23 11:40:26;;;;;;;1.67;1.48;;;;;;;;;;5004730;28;20421;-75
2023/05/23 11:42:52;;;;;;;1.65;1.25;;;;;;;;;;5009389;28;20042;-76
2023/05/23 11:45:22;;;;;;;2.15;1.80;;;;;;;;;;5015539;28;20060;-74
2023/05/23 11:47:47;;;;;;;1.20;1.10;;;;;;;;;;4990891;28;20098;-76
2023/05/23 11:50:14;;;;;;;1.20;1.10;;;;;;;;;;4994671;28;20402;-75
2023/05/23 11:52:40;;;;;;;1.65;1.10;;;;;;;;;;4984732;28;20616;-75
2023/05/23 11:55:07;;;;;;;1.02;1.00;;;;;;;;;;4998900;28;20069;-76
2023/05/23 11:57:32;;;;;;;1.45;1.30;;;;;;;;;;5003047;28;20120;-76
2023/05/23 11:59:58;;;;;;;1.17;1.08;;;;;;;;;;5003943;28;20136;-76
2023/05/23 12:02:27;;;;;;;1.40;0.88;;;;;;;;;;4981997;28;20087;-76
2023/05/23 12:04:53;;;;;;;1.10;0.70;;;;;;;;;;5002033;28;20052;-75
2023/05/23 12:07:19;;;;;;;0.90;0.90;;;;;;;;;;4982978;28;20416;-75
2023/05/23 12:09:45;;;;;;;1.02;0.93;;;;;;;;;;5006622;28;20052;-75
2023/05/23 12:12:11;;;;;;;0.93;0.90;;;;;;;;;;4967223;28;20042;-75
2023/05/23 12:14:43;;;;;;;1.60;0.73;;;;;;;;;;4990499;28;20037;-76
2023/05/23 12:17:11;;;;;;;1.27;0.90;;;;;;;;;;4972804;28;20057;-76
2023/05/23 12:19:36;;;;;;;0.90;0.88;;;;;;;;;;5003586;28;20036;-75
2023/05/23 12:22:08;;;;;;;1.40;1.10;;;;;;;;;;5001068;28;20042;-75
2023/05/23 12:24:34;;;;;;;1.02;0.80;;;;;;;;;;4985588;28;20044;-75
2023/05/23 12:27:01;;;;;;;0.80;0.80;;;;;;;;;;4978670;28;20038;-76
2023/05/23 12:29:31;;;;;;;2.72;0.80;;;;;;;;;;4993042;28;20037;-76
2023/05/23 12:32:01;;;;;;;0.65;0.50;;;;;;;;;;5008347;28;20071;-76
2023/05/23 12:34:27;;;;;;;1.08;0.93;;;;;;;;;;5006138;28;20071;-76
2023/05/23 12:36:57;;;;;;;0.93;0.80;;;;;;;;;;4996275;28;20493;-76
2023/05/23 12:39:29;;;;;;;0.95;0.80;;;;;;;;;;4984830;28;20033;-76
2023/05/23 12:42:05;;;;;;;1.23;1.15;;;;;;;;;;4954435;28;20042;-75
2023/05/23 12:44:31;;;;;;;1.77;1.13;;;;;;;;;;4983161;28;20038;-76
2023/05/23 12:46:56;;;;;;;1.10;1.00;;;;;;;;;;4962400;28;20046;-75
2023/05/23 12:49:21;;;;;;;0.90;0.90;;;;;;;;;;4973026;28;20092;-76
2023/05/23 12:51:47;;;;;;;1.40;1.10;;;;;;;;;;4987203;28;20398;-76
2023/05/23 12:54:12;;;;;;;0.90;0.73;;;;;;;;;;4965457;28;20030;-76
2023/05/23 12:56:37;;;;;;;1.67;1.00;;;;;;;;;;4962262;28;20096;-75
2023/05/23 12:59:03;;;;;;;0.98;0.90;;;;;;;;;;4965764;28;20030;-75
2023/05/23 13:01:29;;;;;;;1.63;1.33;;;;;;;;;;4970106;28;20137;-75
2023/05/23 13:03:54;;;;;;;1.30;1.20;;;;;;;;;;4953521;28;20644;-75
2023/05/23 13:06:20;;;;;;;2.35;1.65;;;;;;;;;;4980009;28;20065;-76
2023/05/23 13:08:47;;;;;;;1.83;1.73;;;;;;;;;;4966496;28;20383;-76
2023/05/23 13:11:13;;;;;;;1.50;1.25;;;;;;;;;;5008761;28;20041;-76
2023/05/23 13:13:38;;;;;;;1.85;1.40;;;;;;;;;;4987020;28;20394;-76
2023/05/23 13:16:04;;;;;;;2.47;1.30;;;;;;;;;;4983653;28;20041;-76
2023/05/23 13:18:29;;;;;;;2.67;2.08;;;;;;;;;;4987717;28;20030;-76
2023/05/23 13:20:55;;;;;;;2.00;1.55;;;;;;;;;;4969129;28;20038;-77
2023/05/23 13:23:20;;;;;;;5.45;3.13;;;;;;;;;;4980745;28;20034;-76
2023/05/23 13:25:46;;;;;;;5.10;3.65;;;;;;;;;;4989751;28;20030;-76
2023/05/23 13:28:11;;;;;;;1.80;1.70;;;;;;;;;;4959152;28;20038;-76
2023/05/23 13:30:37;;;;;;;2.60;2.40;;;;;;;;;;4991533;28;20041;-74
2023/05/23 13:33:02;;;;;;;2.92;2.55;;;;;;;;;;5007828;28;20056;-75
2023/05/23 13:35:28;;;;;;;2.88;2.28;;;;;;;;;;4996559;28;20034;-75
2023/05/23 13:37:53;;;;;;;1.65;1.55;;;;;;;;;;4968532;28;20038;-75
2023/05/23 13:40:20;;;;;;;1.42;1.33;;;;;;;;;;4969346;28;20551;-75
2023/05/23 13:42:48;;;;;;;2.53;2.08;;;;;;;;;;4989564;28;20040;-75
2023/05/23 13:45:14;;;;;;;3.05;2.38;;;;;;;;;;4999578;28;20659;-75
2023/05/23 13:47:40;;;;;;;1.63;1.45;;;;;;;;;;4970135;28;20035;-75
2023/05/23 13:50:06;;;;;;;2.17;1.98;;;;;;;;;;4959890;28;20812;-75
2023/05/23 13:52:31;;;;;;;2.25;1.63;;;;;;;;;;4966694;28;20065;-75
2023/05/23 13:54:58;;;;;;;4.45;2.92;;;;;;;;;;4966028;28;20053;-75
2023/05/23 13:57:23;;;;;;;4.55;2.70;;;;;;;;;;4963151;28;20104;-75
2023/05/23 13:59:49;;;;;;;6.10;3.28;;;;;;;;;;4975440;28;20030;-75
2023/05/23 14:02:15;;;;;;;5.15;3.17;;;;;;;;;;4985141;28;20046;-75
2023/05/23 14:04:40;;;;;;;4.57;3.03;;;;;;;;;;4995048;28;20537;-75
2023/05/23 14:07:06;;;;;;;3.70;2.58;;;;;;;;;;4936669;28;20066;-76
2023/05/23 14:09:31;;;;;;;3.65;2.88;;;;;;;;;;5005090;28;20046;-76
2023/05/23 14:11:56;;;;;;;12.25;6.03;;;;;;;;;;4980564;28;20034;-76
2023/05/23 14:14:22;;;;;;;12.52;8.05;;;;;;;;;;4990589;28;20148;-76
2023/05/23 14:16:50;;;;;;;8.68;5.47;;;;;;;;;;4989549;28;20108;-76
2023/05/23 14:19:15;;;;;;;9.32;5.18;;;;;;;;;;4960090;28;20049;-76
2023/05/23 14:21:41;;;;;;;8.88;5.65;;;;;;;;;;4988402;28;20034;-76
2023/05/23 14:24:06;;;;;;;4.50;3.60;;;;;;;;;;4984422;28;20046;-76
2023/05/23 14:26:32;;;;;;;9.18;5.35;;;;;;;;;;4996541;28;20124;-76
2023/05/23 14:28:57;;;;;;;5.97;4.15;;;;;;;;;;4980393;28;20066;-76
2023/05/23 14:31:23;;;;;;;9.00;6.43;;;;;;;;;;4966907;28;20042;-76
2023/05/23 14:33:48;;;;;;;5.72;4.03;;;;;;;;;;4948318;28;20050;-76
2023/05/23 14:36:15;;;;;;;5.40;3.33;;;;;;;;;;4970282;28;20076;-76
2023/05/23 14:38:44;;;;;;;4.80;3.22;;;;;;;;;;4998460;28;20069;-76
2023/05/23 14:41:09;;;;;;;4.57;2.55;;;;;;;;;;4986824;28;20506;-76
2023/05/23 14:43:35;;;;;;;4.70;2.15;;;;;;;;;;4984233;28;20073;-76